createdAt,value
2023-05-04T00:00:08.667Z,83
2023-05-04T00:03:08.545Z,83
2023-05-04T00:04:09.214Z,83
2023-05-04T00:05:08.646Z,83
2023-05-04T00:06:08.822Z,83
2023-05-04T00:07:08.904Z,83
2023-05-04T00:08:08.304Z,83
2023-05-04T00:09:08.659Z,83
2023-05-04T00:10:10.750Z,83
2023-05-04T00:11:08.389Z,83
2023-05-04T00:12:08.356Z,83
2023-05-04T00:13:08.855Z,83
2023-05-04T00:14:08.934Z,83
2023-05-04T00:15:09.236Z,83
2023-05-04T00:16:10.742Z,83
2023-05-04T00:19:09.261Z,83
2023-05-04T00:20:09.010Z,83
2023-05-04T00:21:08.708Z,83
2023-05-04T00:22:08.744Z,83
2023-05-04T00:23:09.116Z,83
2023-05-04T00:28:07.989Z,83
2023-05-04T00:29:08.540Z,83
2023-05-04T00:30:09.532Z,83
2023-05-04T00:31:08.931Z,83
2023-05-04T00:32:08.312Z,83
2023-05-04T00:33:08.448Z,83
2023-05-04T00:34:08.709Z,83
2023-05-04T00:35:08.684Z,83
2023-05-04T00:36:08.791Z,83
2023-05-04T00:37:08.879Z,83
2023-05-04T00:38:08.314Z,83
2023-05-04T00:41:09.106Z,83
2023-05-04T00:42:08.356Z,83
2023-05-04T00:43:08.501Z,83
2023-05-04T00:44:08.796Z,84
2023-05-04T00:45:09.231Z,84
2023-05-04T00:46:08.545Z,84
2023-05-04T00:47:08.832Z,84
2023-05-04T00:48:09.068Z,84
2023-05-04T00:51:08.542Z,84
2023-05-04T00:52:08.962Z,84
2023-05-04T00:53:09.099Z,84
2023-05-04T00:54:08.392Z,84
2023-05-04T00:55:08.614Z,84
2023-05-04T00:56:08.459Z,84
2023-05-04T00:57:08.849Z,84
2023-05-04T00:58:09.060Z,84
2023-05-04T00:59:08.159Z,84
2023-05-04T01:01:08.687Z,84
2023-05-04T01:02:09.201Z,84
2023-05-04T01:03:08.486Z,84
2023-05-04T01:04:09.067Z,84
2023-05-04T01:06:09.002Z,84
2023-05-04T01:07:08.041Z,84
2023-05-04T01:08:08.520Z,84
2023-05-04T01:09:09.083Z,84
2023-05-04T01:10:08.418Z,84
2023-05-04T01:15:08.428Z,84
2023-05-04T01:16:08.464Z,84
2023-05-04T01:17:08.950Z,84
2023-05-04T01:18:09.283Z,84
2023-05-04T01:19:08.903Z,84
2023-05-04T01:20:09.068Z,84
2023-05-04T01:21:08.196Z,84
2023-05-04T01:22:08.719Z,84
2023-05-04T01:23:08.832Z,84
2023-05-04T01:24:08.996Z,84
2023-05-04T01:27:08.325Z,84
2023-05-04T01:28:08.374Z,84
2023-05-04T01:29:08.923Z,84
2023-05-04T01:30:08.897Z,84
2023-05-04T01:34:08.445Z,84
2023-05-04T01:35:08.718Z,84
2023-05-04T01:36:08.994Z,84
2023-05-04T01:37:09.075Z,84
2023-05-04T01:38:08.375Z,84
2023-05-04T01:39:08.677Z,84
2023-05-04T01:44:08.393Z,84
2023-05-04T01:45:08.692Z,84
2023-05-04T01:46:09.292Z,84
2023-05-04T01:47:08.277Z,84
2023-05-04T01:48:08.678Z,84
2023-05-04T01:49:08.706Z,84
2023-05-04T01:50:09.673Z,84
2023-05-04T01:51:08.998Z,84
2023-05-04T01:52:08.199Z,84
2023-05-04T01:53:08.573Z,84
2023-05-04T01:54:08.733Z,84
2023-05-04T02:00:09.021Z,84
2023-05-04T02:02:08.653Z,84
2023-05-04T02:03:08.845Z,84
2023-05-04T02:04:08.831Z,84
2023-05-04T02:10:09.020Z,84
2023-05-04T02:11:08.447Z,84
2023-05-04T02:12:08.680Z,84
2023-05-04T02:13:09.252Z,84
2023-05-04T02:14:08.243Z,84
2023-05-04T02:15:08.465Z,84
2023-05-04T02:16:08.775Z,84
2023-05-04T02:17:08.141Z,84
2023-05-04T02:18:08.521Z,84
2023-05-04T02:19:08.511Z,84
2023-05-04T02:20:10.024Z,84
2023-05-04T02:21:08.259Z,84
2023-05-04T02:22:08.440Z,84
2023-05-04T02:23:08.761Z,84
2023-05-04T02:24:08.859Z,84
2023-05-04T02:25:08.294Z,84
2023-05-04T02:26:08.409Z,84
2023-05-04T02:27:08.866Z,84
2023-05-04T02:28:09.123Z,84
2023-05-04T02:29:08.501Z,84
2023-05-04T02:30:09.597Z,84
2023-05-04T02:31:08.279Z,84
2023-05-04T02:32:08.908Z,84
2023-05-04T02:33:09.325Z,84
2023-05-04T02:34:08.241Z,84
2023-05-04T02:35:08.607Z,84
2023-05-04T02:36:08.632Z,84
2023-05-04T02:37:11.488Z,84
2023-05-04T02:40:09.180Z,84
2023-05-04T02:42:08.394Z,84
2023-05-04T02:43:08.496Z,84
2023-05-04T02:44:08.737Z,84
2023-05-04T02:45:08.915Z,84
2023-05-04T02:46:08.732Z,84
2023-05-04T02:47:08.780Z,84
2023-05-04T02:48:09.393Z,84
2023-05-04T02:49:08.124Z,84
2023-05-04T02:50:09.313Z,84
2023-05-04T02:51:08.370Z,84
2023-05-04T02:52:08.656Z,84
2023-05-04T02:53:09.050Z,84
2023-05-04T02:54:08.487Z,84
2023-05-04T02:55:08.509Z,84
2023-05-04T03:00:08.991Z,84
2023-05-04T03:04:08.541Z,84
2023-05-04T03:05:08.611Z,84
2023-05-04T03:06:08.629Z,84
2023-05-04T03:07:08.581Z,84
2023-05-04T03:08:08.272Z,85
2023-05-04T03:09:08.385Z,85
2023-05-04T03:10:09.172Z,85
2023-05-04T03:11:08.597Z,85
2023-05-04T03:14:08.509Z,85
2023-05-04T03:15:08.659Z,85
2023-05-04T03:16:08.351Z,85
2023-05-04T03:17:08.529Z,85
2023-05-04T03:18:09.282Z,85
2023-05-04T03:19:08.170Z,85
2023-05-04T03:20:09.097Z,85
2023-05-04T03:23:08.317Z,85
2023-05-04T03:24:08.752Z,85
2023-05-04T03:25:09.046Z,85
2023-05-04T03:26:09.059Z,85
2023-05-04T03:27:07.449Z,85
2023-05-04T03:28:08.583Z,85
2023-05-04T03:29:08.411Z,85
2023-05-04T03:30:09.423Z,85
2023-05-04T03:31:08.714Z,85
2023-05-04T03:32:08.134Z,85
2023-05-04T03:33:08.642Z,85
2023-05-04T03:36:08.104Z,85
2023-05-04T03:37:08.404Z,85
2023-05-04T03:38:08.554Z,85
2023-05-04T03:39:08.948Z,85
2023-05-04T03:40:09.568Z,85
2023-05-04T03:41:08.122Z,85
2023-05-04T03:42:08.208Z,85
2023-05-04T03:46:08.755Z,85
2023-05-04T03:47:09.000Z,85
2023-05-04T03:48:08.371Z,85
2023-05-04T03:49:08.475Z,85
2023-05-04T03:50:09.929Z,85
2023-05-04T03:51:08.380Z,86
2023-05-04T03:52:08.844Z,86
2023-05-04T03:53:09.170Z,86
2023-05-04T03:58:08.283Z,86
2023-05-04T03:59:08.434Z,86
2023-05-04T04:00:09.579Z,86
2023-05-04T04:01:08.167Z,86
2023-05-04T04:02:08.595Z,86
2023-05-04T04:03:09.495Z,86
2023-05-04T04:05:08.263Z,86
2023-05-04T04:06:08.810Z,86
2023-05-04T04:07:09.066Z,86
2023-05-04T04:08:08.460Z,86
2023-05-04T04:09:08.694Z,86
2023-05-04T04:11:08.435Z,86
2023-05-04T04:12:08.927Z,86
2023-05-04T04:13:08.482Z,86
2023-05-04T04:14:08.578Z,86
2023-05-04T04:15:08.769Z,86
2023-05-04T04:16:08.687Z,86
2023-05-04T04:17:08.632Z,86
2023-05-04T04:21:08.895Z,86
2023-05-04T04:22:08.176Z,86
2023-05-04T04:23:08.482Z,86
2023-05-04T04:24:08.826Z,86
2023-05-04T04:25:09.065Z,86
2023-05-04T04:26:08.180Z,86
2023-05-04T04:27:08.452Z,86
2023-05-04T04:28:08.850Z,86
2023-05-04T04:29:09.053Z,86
2023-05-04T04:30:08.908Z,86
2023-05-04T04:31:08.571Z,86
2023-05-04T04:32:08.921Z,86
2023-05-04T04:33:09.253Z,86
2023-05-04T04:37:08.042Z,86
2023-05-04T04:39:08.252Z,86
2023-05-04T04:40:09.158Z,86
2023-05-04T04:41:08.379Z,86
2023-05-04T04:42:08.777Z,86
2023-05-04T04:43:09.032Z,86
2023-05-04T04:44:08.242Z,86
2023-05-04T04:45:08.869Z,86
2023-05-04T04:46:08.043Z,86
2023-05-04T04:50:10.134Z,86
2023-05-04T04:51:08.326Z,86
2023-05-04T04:52:08.557Z,86
2023-05-04T04:53:08.886Z,86
2023-05-04T04:54:08.483Z,86
2023-05-04T04:55:08.852Z,86
2023-05-04T04:58:08.774Z,86
2023-05-04T04:59:09.050Z,86
2023-05-04T05:00:09.275Z,86
2023-05-04T05:01:08.420Z,86
2023-05-04T05:02:08.658Z,86
2023-05-04T05:03:08.891Z,86
2023-05-04T05:04:08.958Z,86
2023-05-04T05:05:08.544Z,86
2023-05-04T05:09:08.187Z,85
2023-05-04T05:10:09.451Z,84
2023-05-04T05:11:08.423Z,84
2023-05-04T05:12:08.390Z,84
2023-05-04T05:13:08.955Z,84
2023-05-04T05:14:08.702Z,82
2023-05-04T05:15:09.166Z,82
2023-05-04T05:20:09.022Z,77
2023-05-04T05:21:08.635Z,76
2023-05-04T05:23:08.151Z,74
2023-05-04T05:24:08.613Z,73
2023-05-04T05:25:08.930Z,72
2023-05-04T05:26:08.817Z,72
2023-05-04T05:27:09.100Z,72
2023-05-04T05:31:08.738Z,70
2023-05-04T05:32:09.059Z,70
2023-05-04T05:33:09.136Z,70
2023-05-04T05:34:08.129Z,70
2023-05-04T05:35:08.969Z,69
2023-05-04T05:36:09.107Z,68
2023-05-04T05:37:08.383Z,68
2023-05-04T05:38:08.839Z,67
2023-05-04T05:39:08.997Z,66
2023-05-04T05:41:08.035Z,65
2023-05-04T05:42:08.391Z,65
2023-05-04T05:43:08.534Z,64
2023-05-04T05:44:08.036Z,64
2023-05-04T05:45:08.415Z,63
2023-05-04T05:46:09.300Z,62
2023-05-04T05:47:08.012Z,61
2023-05-04T05:48:08.716Z,61
2023-05-04T05:49:08.576Z,60
2023-05-04T05:52:08.705Z,60
2023-05-04T05:53:08.929Z,59
2023-05-04T05:54:08.340Z,59
2023-05-04T05:55:09.207Z,58
2023-05-04T05:56:08.891Z,57
2023-05-04T05:57:07.947Z,57
2023-05-04T05:58:08.527Z,56
2023-05-04T05:59:08.679Z,56
2023-05-04T06:00:09.886Z,55
2023-05-04T06:03:08.538Z,54
2023-05-04T06:04:09.546Z,53
2023-05-04T06:06:08.286Z,53
2023-05-04T06:07:08.501Z,52
2023-05-04T06:08:08.774Z,52
2023-05-04T06:09:08.201Z,51
2023-05-04T06:10:09.186Z,51
2023-05-04T06:13:08.269Z,50
2023-05-04T06:15:08.659Z,50
2023-05-04T06:16:09.160Z,49
2023-05-04T06:17:08.251Z,49
2023-05-04T06:18:09.008Z,48
2023-05-04T06:21:08.290Z,48
2023-05-04T06:22:08.622Z,47
2023-05-04T06:23:08.428Z,47
2023-05-04T06:24:09.092Z,47
2023-05-04T06:25:12.000Z,47
2023-05-04T06:29:08.348Z,46
2023-05-04T06:30:09.567Z,46
2023-05-04T06:31:08.191Z,47
2023-05-04T06:35:07.697Z,46
2023-05-04T06:36:08.875Z,46
2023-05-04T06:37:08.556Z,46
2023-05-04T06:38:08.711Z,46
2023-05-04T06:39:08.839Z,46
2023-05-04T06:40:08.440Z,46
2023-05-04T06:41:08.866Z,47
2023-05-04T06:42:08.305Z,47
2023-05-04T06:43:08.478Z,47
2023-05-04T06:44:08.615Z,46
2023-05-04T06:45:09.017Z,46
2023-05-04T06:46:08.076Z,46
2023-05-04T06:47:08.237Z,46
2023-05-04T06:48:08.629Z,46
2023-05-04T06:49:08.760Z,46
2023-05-04T06:50:09.368Z,46
2023-05-04T06:51:08.680Z,46
2023-05-04T06:52:08.900Z,45
2023-05-04T06:53:08.158Z,45
2023-05-04T06:54:08.450Z,46
2023-05-04T06:55:08.713Z,45
2023-05-04T06:56:08.749Z,45
2023-05-04T07:00:09.734Z,45
2023-05-04T07:01:08.187Z,44
2023-05-04T07:02:08.310Z,44
2023-05-04T07:03:08.902Z,44
2023-05-04T07:04:09.111Z,44
2023-05-04T07:05:08.279Z,44
2023-05-04T07:06:08.938Z,44
2023-05-04T07:07:08.211Z,44
2023-05-04T07:08:08.530Z,44
2023-05-04T07:09:08.819Z,43
2023-05-04T07:11:08.741Z,42
2023-05-04T07:12:08.995Z,42
2023-05-04T07:13:08.324Z,42
2023-05-04T07:14:10.682Z,42
2023-05-04T07:16:09.152Z,43
2023-05-04T07:17:09.153Z,44
2023-05-04T07:18:08.600Z,45
2023-05-04T07:20:10.185Z,45
2023-05-04T07:21:31.960Z,46
2023-05-04T07:23:08.821Z,47
2023-05-04T07:24:09.118Z,47
2023-05-04T07:25:08.260Z,47
2023-05-04T07:26:08.507Z,47
2023-05-04T07:27:08.690Z,48
2023-05-04T07:28:08.257Z,49
2023-05-04T07:29:08.415Z,49
2023-05-04T07:30:09.286Z,49
2023-05-04T07:31:07.554Z,49
2023-05-04T07:32:08.902Z,50
2023-05-04T07:37:08.069Z,50
2023-05-04T07:38:08.486Z,51
2023-05-04T07:39:08.829Z,51
2023-05-04T07:41:08.788Z,51
2023-05-04T07:42:09.079Z,51
2023-05-04T07:43:08.107Z,51
2023-05-04T07:44:08.435Z,52
2023-05-04T07:45:09.031Z,52
2023-05-04T07:51:08.404Z,53
2023-05-04T07:52:08.567Z,53
2023-05-04T07:53:09.008Z,53
2023-05-04T07:54:08.320Z,53
2023-05-04T07:55:08.515Z,53
2023-05-04T07:56:08.732Z,53
2023-05-04T07:57:08.197Z,53
2023-05-04T07:58:08.379Z,53
2023-05-04T07:59:08.689Z,53
2023-05-04T08:00:10.032Z,53
2023-05-04T08:01:08.346Z,53
2023-05-04T08:02:08.735Z,53
2023-05-04T08:03:09.021Z,53
2023-05-04T08:04:08.235Z,53
2023-05-04T08:05:08.519Z,54
2023-05-04T08:06:08.193Z,54
2023-05-04T08:07:08.691Z,54
2023-05-04T08:08:08.747Z,54
2023-05-04T08:09:08.947Z,54
2023-05-04T08:10:08.586Z,54
2023-05-04T08:11:24.966Z,54
2023-05-04T08:13:08.794Z,54
2023-05-04T08:14:09.097Z,54
2023-05-04T08:15:08.940Z,54
2023-05-04T08:16:08.478Z,54
2023-05-04T08:17:08.866Z,54
2023-05-04T08:22:09.087Z,55
2023-05-04T08:23:08.120Z,54
2023-05-04T08:24:08.369Z,54
2023-05-04T08:27:15.021Z,55
2023-05-04T08:29:08.731Z,55
2023-05-04T08:30:08.939Z,55
2023-05-04T08:31:08.152Z,55
2023-05-04T08:32:08.937Z,55
2023-05-04T08:33:09.211Z,55
2023-05-04T08:34:08.071Z,55
2023-05-04T08:35:09.296Z,55
2023-05-04T08:37:07.971Z,54
2023-05-04T08:38:08.614Z,54
2023-05-04T08:39:08.695Z,54
2023-05-04T08:40:09.000Z,54
2023-05-04T08:41:08.137Z,54
2023-05-04T08:42:08.467Z,54
2023-05-04T08:43:08.717Z,54
2023-05-04T08:44:08.895Z,54
2023-05-04T08:45:08.330Z,54
2023-05-04T08:46:08.388Z,54
2023-05-04T08:47:08.258Z,53
2023-05-04T08:48:08.791Z,53
2023-05-04T08:52:08.843Z,54
2023-05-04T08:53:09.067Z,53
2023-05-04T08:54:08.465Z,53
2023-05-04T08:55:09.388Z,53
2023-05-04T08:56:08.887Z,53
2023-05-04T08:57:09.255Z,53
2023-05-04T08:58:08.415Z,52
2023-05-04T08:59:08.732Z,52
2023-05-04T09:00:09.078Z,52
2023-05-04T09:01:08.732Z,52
2023-05-04T09:02:08.892Z,52
2023-05-04T09:03:09.263Z,52
2023-05-04T09:04:08.194Z,52
2023-05-04T09:05:08.917Z,52
2023-05-04T09:06:08.650Z,52
2023-05-04T09:07:08.194Z,52
2023-05-04T09:08:08.594Z,52
2023-05-04T09:09:08.837Z,52
2023-05-04T09:14:08.174Z,51
2023-05-04T09:15:09.743Z,52
2023-05-04T09:18:09.190Z,50
2023-05-04T09:19:08.207Z,50
2023-05-04T09:20:08.521Z,50
2023-05-04T09:21:08.847Z,50
2023-05-04T09:22:09.080Z,50
2023-05-04T09:23:08.168Z,50
2023-05-04T09:24:08.580Z,50
2023-05-04T09:25:09.238Z,50
2023-05-04T09:26:08.835Z,50
2023-05-04T09:27:08.806Z,50
2023-05-04T09:28:08.747Z,49
2023-05-04T09:29:08.864Z,49
2023-05-04T09:30:08.448Z,49
2023-05-04T09:32:08.468Z,49
2023-05-04T09:33:08.425Z,49
2023-05-04T09:34:08.564Z,49
2023-05-04T09:35:10.747Z,49
2023-05-04T09:36:08.626Z,49
2023-05-04T09:37:07.887Z,49
2023-05-04T09:38:07.939Z,49
2023-05-04T09:39:10.086Z,49
2023-05-04T09:40:08.126Z,49
2023-05-04T09:41:08.343Z,49
2023-05-04T09:42:08.624Z,49
2023-05-04T09:43:07.622Z,49
2023-05-04T09:44:08.465Z,49
2023-05-04T09:45:09.292Z,49
2023-05-04T09:46:07.786Z,49
2023-05-04T09:47:08.564Z,49
2023-05-04T09:48:08.488Z,49
2023-05-04T09:49:08.252Z,49
2023-05-04T09:50:08.541Z,49
2023-05-04T09:51:08.987Z,49
2023-05-04T09:52:08.204Z,49
2023-05-04T09:53:08.545Z,49
2023-05-04T09:54:07.807Z,49
2023-05-04T09:55:09.084Z,49
2023-05-04T09:56:10.951Z,49
2023-05-04T10:00:07.915Z,49
2023-05-04T10:01:07.707Z,49
2023-05-04T10:02:26.989Z,49
2023-05-04T10:04:08.568Z,49
2023-05-04T10:05:09.067Z,49
2023-05-04T10:07:08.307Z,49
2023-05-04T10:08:09.193Z,49
2023-05-04T10:09:08.759Z,47
2023-05-04T10:12:08.676Z,47
2023-05-04T10:17:08.591Z,47
2023-05-04T10:18:08.822Z,47
2023-05-04T10:19:07.453Z,47
2023-05-04T10:20:09.047Z,47
2023-05-04T10:21:08.246Z,47
2023-05-04T10:22:08.476Z,47
2023-05-04T10:23:08.689Z,47
2023-05-04T10:25:09.288Z,46
2023-05-04T10:26:08.354Z,46
2023-05-04T10:27:08.553Z,46
2023-05-04T10:28:08.752Z,46
2023-05-04T10:29:09.002Z,46
2023-05-04T10:30:08.220Z,46
2023-05-04T10:31:08.806Z,46
2023-05-04T10:32:09.089Z,46
2023-05-04T10:36:08.640Z,45
2023-05-04T10:37:08.788Z,46
2023-05-04T10:38:08.964Z,46
2023-05-04T10:39:08.342Z,46
2023-05-04T10:40:10.943Z,46
2023-05-04T10:43:07.324Z,46
2023-05-04T10:44:08.490Z,45
2023-05-04T10:45:09.377Z,45
2023-05-04T10:46:09.072Z,45
2023-05-04T10:47:08.939Z,46
2023-05-04T10:52:09.109Z,45
2023-05-04T10:53:08.421Z,45
2023-05-04T10:54:08.684Z,45
2023-05-04T10:55:09.589Z,44
2023-05-04T10:56:08.307Z,44
2023-05-04T10:57:08.374Z,44
2023-05-04T10:58:08.813Z,44
2023-05-04T10:59:08.272Z,44
2023-05-04T11:00:08.736Z,44
2023-05-04T11:01:08.476Z,44
2023-05-04T11:02:08.894Z,44
2023-05-04T11:06:08.898Z,44
2023-05-04T11:08:08.597Z,44
2023-05-04T11:09:08.739Z,44
2023-05-04T11:10:09.133Z,44
2023-05-04T11:11:08.744Z,43
2023-05-04T11:12:08.811Z,44
2023-05-04T11:13:10.217Z,44
2023-05-04T11:16:08.912Z,44
2023-05-04T11:17:31.110Z,44
2023-05-04T11:18:08.861Z,44
2023-05-04T11:19:08.268Z,44
2023-05-04T11:20:08.513Z,43
2023-05-04T11:21:08.794Z,44
2023-05-04T11:22:09.083Z,44
2023-05-04T11:23:08.396Z,44
2023-05-04T11:24:11.184Z,44
2023-05-04T11:26:10.026Z,43
2023-05-04T11:28:08.802Z,44
2023-05-04T11:30:08.998Z,43
2023-05-04T11:31:08.603Z,42
2023-05-04T11:32:08.690Z,42
2023-05-04T11:33:09.041Z,41
2023-05-04T11:34:08.160Z,41
2023-05-04T11:35:09.083Z,41
2023-05-04T11:36:08.564Z,40
2023-05-04T11:37:08.944Z,40
2023-05-04T11:39:07.790Z,40
2023-05-04T11:40:08.852Z,40
2023-05-04T11:41:08.132Z,41
2023-05-04T11:42:08.442Z,41
2023-05-04T11:43:08.696Z,41
2023-05-04T11:45:09.111Z,41
2023-05-04T11:46:08.581Z,40
2023-05-04T11:47:09.123Z,40
2023-05-04T11:50:09.031Z,41
2023-05-04T11:52:08.240Z,41
2023-05-04T11:53:08.386Z,40
2023-05-04T11:54:08.560Z,40
2023-05-04T11:55:09.646Z,40
2023-05-04T11:56:09.144Z,40
2023-05-04T11:58:08.750Z,40
2023-05-04T11:59:09.099Z,39
2023-05-04T12:00:08.209Z,39
2023-05-04T12:01:09.090Z,39
2023-05-04T12:02:08.116Z,39
2023-05-04T12:03:08.603Z,40
2023-05-04T12:04:09.014Z,40
2023-05-04T12:05:09.494Z,40
2023-05-04T12:06:08.291Z,40
2023-05-04T12:07:08.587Z,40
2023-05-04T12:08:08.860Z,39
2023-05-04T12:09:09.304Z,39
2023-05-04T12:12:08.213Z,38
2023-05-04T12:13:08.704Z,38
2023-05-04T12:14:08.728Z,38
2023-05-04T12:15:09.402Z,39
2023-05-04T12:16:08.751Z,39
2023-05-04T12:17:08.898Z,39
2023-05-04T12:18:09.848Z,39
2023-05-04T12:19:08.385Z,39
2023-05-04T12:22:08.661Z,38
2023-05-04T12:23:09.106Z,39
2023-05-04T12:24:08.349Z,38
2023-05-04T12:25:09.542Z,38
2023-05-04T12:26:08.384Z,38
2023-05-04T12:27:08.683Z,38
2023-05-04T12:28:09.042Z,38
2023-05-04T12:29:09.116Z,38
2023-05-04T12:30:08.383Z,38
2023-05-04T12:31:08.290Z,38
2023-05-04T12:32:08.702Z,38
2023-05-04T12:33:08.568Z,38
2023-05-04T12:34:08.852Z,38
2023-05-04T12:35:09.448Z,38
2023-05-04T12:40:29.519Z,38
2023-05-04T12:42:08.418Z,38
2023-05-04T12:43:08.675Z,38
2023-05-04T12:44:08.990Z,38
2023-05-04T12:45:08.773Z,37
2023-05-04T12:46:08.244Z,37
2023-05-04T12:47:08.649Z,38
2023-05-04T12:48:09.021Z,38
2023-05-04T12:49:08.544Z,37
2023-05-04T12:50:08.770Z,38
2023-05-04T12:51:09.059Z,38
2023-05-04T12:56:08.132Z,38
2023-05-04T12:57:08.511Z,38
2023-05-04T12:58:08.712Z,38
2023-05-04T12:59:08.989Z,38
2023-05-04T13:00:08.464Z,38
2023-05-04T13:01:08.867Z,37
2023-05-04T13:02:08.932Z,37
2023-05-04T13:03:08.652Z,37
2023-05-04T13:04:08.086Z,38
2023-05-04T13:05:09.123Z,38
2023-05-04T13:08:08.484Z,38
2023-05-04T13:09:08.787Z,38
2023-05-04T13:10:09.140Z,38
2023-05-04T13:11:08.246Z,38
2023-05-04T13:12:08.464Z,38
2023-05-04T13:13:08.874Z,38
2023-05-04T13:14:08.996Z,38
2023-05-04T13:15:09.024Z,37
2023-05-04T13:16:08.877Z,37
2023-05-04T13:17:08.909Z,37
2023-05-04T13:18:08.286Z,36
2023-05-04T13:19:07.830Z,36
2023-05-04T13:20:09.779Z,36
2023-05-04T13:21:09.168Z,36
2023-05-04T13:25:08.957Z,38
2023-05-04T13:26:08.831Z,37
2023-05-04T13:27:09.063Z,38
2023-05-04T13:28:08.136Z,38
2023-05-04T13:29:08.383Z,37
2023-05-04T13:30:08.736Z,37
2023-05-04T13:31:09.139Z,37
2023-05-04T13:32:08.402Z,36
2023-05-04T13:33:33.149Z,37
2023-05-04T13:35:08.890Z,37
2023-05-04T13:37:08.443Z,37
2023-05-04T13:38:08.918Z,37
2023-05-04T13:39:07.982Z,36
2023-05-04T13:40:07.497Z,35
2023-05-04T13:41:08.406Z,36
2023-05-04T13:42:08.632Z,36
2023-05-04T13:43:07.095Z,36
2023-05-04T13:44:08.374Z,36
2023-05-04T13:45:09.437Z,36
2023-05-04T13:46:08.392Z,36
2023-05-04T13:47:08.829Z,35
2023-05-04T13:48:09.129Z,35
2023-05-04T13:49:08.321Z,35
2023-05-04T13:50:08.769Z,35
2023-05-04T13:51:08.701Z,35
2023-05-04T13:52:08.866Z,35
2023-05-04T13:53:08.155Z,35
2023-05-04T13:54:09.112Z,35
2023-05-04T13:57:08.272Z,35
2023-05-04T13:58:08.465Z,35
2023-05-04T13:59:08.751Z,35
2023-05-04T14:00:16.025Z,36
2023-05-04T14:03:08.339Z,35
2023-05-04T14:04:09.172Z,35
2023-05-04T14:05:09.345Z,35
2023-05-04T14:06:08.573Z,35
2023-05-04T14:07:08.884Z,34
2023-05-04T14:12:08.341Z,34
2023-05-04T14:13:08.749Z,34
2023-05-04T14:14:09.102Z,34
2023-05-04T14:15:08.862Z,34
2023-05-04T14:16:08.518Z,34
2023-05-04T14:17:08.524Z,34
2023-05-04T14:18:08.953Z,34
2023-05-04T14:19:09.003Z,34
2023-05-04T14:20:08.312Z,34
2023-05-04T14:24:07.516Z,34
2023-05-04T14:25:09.411Z,34
2023-05-04T14:28:08.507Z,34
2023-05-04T14:32:08.268Z,34
2023-05-04T14:33:08.564Z,33
2023-05-04T14:35:09.534Z,33
2023-05-04T14:36:08.323Z,32
2023-05-04T14:37:08.616Z,33
2023-05-04T14:38:08.793Z,33
2023-05-04T14:39:09.114Z,33
2023-05-04T14:42:09.034Z,32
2023-05-04T14:43:09.130Z,32
2023-05-04T14:44:08.334Z,32
2023-05-04T14:45:10.017Z,32
2023-05-04T14:46:08.742Z,32
2023-05-04T14:47:10.008Z,32
2023-05-04T14:50:08.592Z,32
2023-05-04T14:51:08.280Z,32
2023-05-04T14:52:08.507Z,32
2023-05-04T14:53:08.483Z,30
2023-05-04T14:54:08.850Z,30
2023-05-04T14:58:08.246Z,30
2023-05-04T14:59:08.810Z,31
2023-05-04T15:00:10.162Z,32
2023-05-04T15:01:08.122Z,32
2023-05-04T15:02:08.476Z,32
2023-05-04T15:03:09.080Z,32
2023-05-04T15:04:08.610Z,32
2023-05-04T15:05:08.435Z,32
2023-05-04T15:06:09.083Z,32
2023-05-04T15:07:08.125Z,32
2023-05-04T15:08:08.718Z,32
2023-05-04T15:09:08.880Z,32
2023-05-04T15:12:08.758Z,30
2023-05-04T15:13:08.586Z,30
2023-05-04T15:14:07.542Z,30
2023-05-04T15:15:08.681Z,30
2023-05-04T15:18:09.145Z,30
2023-05-04T15:19:09.148Z,29
2023-05-04T15:20:09.233Z,29
2023-05-04T15:22:08.176Z,29
2023-05-04T15:23:08.601Z,29
2023-05-04T15:24:08.681Z,29
2023-05-04T15:25:09.121Z,29
2023-05-04T15:26:08.342Z,29
2023-05-04T15:27:08.846Z,29
2023-05-04T15:28:08.896Z,29
2023-05-04T15:29:08.907Z,29
2023-05-04T15:30:08.493Z,29
2023-05-04T15:31:08.441Z,29
2023-05-04T15:32:09.113Z,29
2023-05-04T15:33:09.508Z,29
2023-05-04T15:34:08.463Z,29
2023-05-04T15:35:12.286Z,29
2023-05-04T15:36:08.945Z,29
2023-05-04T15:40:09.712Z,29
2023-05-04T15:41:08.704Z,29
2023-05-04T15:42:08.937Z,29
2023-05-04T15:45:10.864Z,29
2023-05-04T15:46:08.226Z,29
2023-05-04T15:47:08.936Z,29
2023-05-04T15:48:09.041Z,28
2023-05-04T15:49:08.776Z,29
2023-05-04T15:50:08.706Z,29
2023-05-04T15:51:08.742Z,28
2023-05-04T15:53:09.961Z,28
2023-05-04T15:54:08.172Z,28
2023-05-04T15:55:30.102Z,28
2023-05-04T16:02:08.301Z,29
2023-05-04T16:03:08.829Z,29
2023-05-04T16:04:09.042Z,30
2023-05-04T16:05:09.034Z,30
2023-05-04T16:07:08.206Z,30
2023-05-04T16:08:08.287Z,30
2023-05-04T16:09:08.471Z,30
2023-05-04T16:10:09.938Z,29
2023-05-04T16:11:09.033Z,30
2023-05-04T16:12:08.300Z,30
2023-05-04T16:13:12.122Z,30
2023-05-04T16:14:08.616Z,30
2023-05-04T16:16:07.335Z,30
2023-05-04T16:17:08.828Z,30
2023-05-04T16:18:08.233Z,31
2023-05-04T16:19:11.662Z,32
2023-05-04T16:20:10.369Z,32
2023-05-04T16:21:09.001Z,32
2023-05-04T16:22:08.275Z,32
2023-05-04T16:23:08.906Z,32
2023-05-04T16:24:08.882Z,32
2023-05-04T16:25:11.466Z,32
2023-05-04T16:27:08.977Z,32
2023-05-04T16:28:08.654Z,32
2023-05-04T16:29:08.573Z,32
2023-05-04T16:30:08.965Z,32
2023-05-04T16:33:08.439Z,33
2023-05-04T16:34:08.419Z,33
2023-05-04T16:35:08.707Z,33
2023-05-04T16:36:08.254Z,33
2023-05-04T16:37:10.844Z,33
2023-05-04T16:39:08.800Z,33
2023-05-04T16:40:09.252Z,33
2023-05-04T16:41:08.801Z,33
2023-05-04T16:44:08.531Z,33
2023-05-04T16:45:08.582Z,33
2023-05-04T16:46:08.604Z,33
2023-05-04T16:47:08.670Z,33
2023-05-04T16:48:08.701Z,33
2023-05-04T16:49:13.130Z,33
2023-05-04T16:50:08.476Z,33
2023-05-04T16:51:08.510Z,33
2023-05-04T16:52:08.195Z,33
2023-05-04T16:53:08.613Z,32
2023-05-04T16:54:09.317Z,32
2023-05-04T16:55:11.518Z,32
2023-05-04T16:57:08.465Z,32
2023-05-04T16:58:08.580Z,32
2023-05-04T16:59:09.817Z,32
2023-05-04T17:00:07.776Z,32
2023-05-04T17:01:09.681Z,32
2023-05-04T17:02:08.570Z,32
2023-05-04T17:03:08.903Z,32
2023-05-04T17:04:09.118Z,32
2023-05-04T17:05:08.256Z,32
2023-05-04T17:06:06.980Z,32
2023-05-04T17:07:11.587Z,32
2023-05-04T17:08:08.316Z,32
2023-05-04T17:09:09.115Z,32
2023-05-04T17:10:09.774Z,32
2023-05-04T17:11:08.957Z,32
2023-05-04T17:12:08.951Z,32
2023-05-04T17:13:08.728Z,32
2023-05-04T17:14:08.845Z,32
2023-05-04T17:15:09.020Z,32
2023-05-04T17:16:08.181Z,32
2023-05-04T17:17:08.402Z,32
2023-05-04T17:18:08.599Z,32
2023-05-04T17:19:11.128Z,33
2023-05-04T17:21:08.507Z,33
2023-05-04T17:22:08.872Z,33
2023-05-04T17:23:08.181Z,33
2023-05-04T17:24:08.357Z,33
2023-05-04T17:25:08.673Z,33
2023-05-04T17:26:08.488Z,32
2023-05-04T17:27:08.970Z,32
2023-05-04T17:28:08.714Z,32
2023-05-04T17:31:08.309Z,32
2023-05-04T17:32:08.853Z,32
2023-05-04T17:33:08.760Z,32
2023-05-04T17:34:08.531Z,32
2023-05-04T17:35:30.079Z,33
2023-05-04T17:37:09.042Z,33
2023-05-04T17:38:08.489Z,33
2023-05-04T17:39:08.428Z,33
2023-05-04T17:40:09.397Z,33
2023-05-04T17:41:09.014Z,33
2023-05-04T17:42:08.296Z,33
2023-05-04T17:43:08.374Z,34
2023-05-04T17:44:08.685Z,34
2023-05-04T17:47:08.436Z,34
2023-05-04T17:48:08.832Z,34
2023-05-04T17:49:08.914Z,34
2023-05-04T17:50:08.788Z,34
2023-05-04T17:51:08.840Z,34
2023-05-04T17:55:08.155Z,35
2023-05-04T17:56:07.121Z,35
2023-05-04T17:57:08.378Z,35
2023-05-04T17:58:09.021Z,35
2023-05-04T17:59:09.100Z,36
2023-05-04T18:00:10.356Z,36
2023-05-04T18:05:08.732Z,36
2023-05-04T18:06:08.977Z,35
2023-05-04T18:07:08.238Z,34
2023-05-04T18:08:08.521Z,34
2023-05-04T18:09:09.020Z,34
2023-05-04T18:10:09.966Z,34
2023-05-04T18:14:08.186Z,34
2023-05-04T18:15:08.461Z,34
2023-05-04T18:16:09.274Z,34
2023-05-04T18:17:08.619Z,34
2023-05-04T18:18:09.073Z,34
2023-05-04T18:19:09.054Z,34
2023-05-04T18:20:09.307Z,34
2023-05-04T18:23:08.293Z,35
2023-05-04T18:24:08.402Z,35
2023-05-04T18:25:08.752Z,36
2023-05-04T18:26:09.001Z,36
2023-05-04T18:27:08.261Z,36
2023-05-04T18:28:08.575Z,36
2023-05-04T18:31:09.068Z,38
2023-05-04T18:32:08.207Z,38
2023-05-04T18:33:08.930Z,38
2023-05-04T18:34:08.672Z,38
2023-05-04T18:36:08.080Z,39
2023-05-04T18:37:08.551Z,40
2023-05-04T18:38:08.744Z,40
2023-05-04T18:39:08.231Z,40
2023-05-04T18:40:09.114Z,40
2023-05-04T18:41:08.382Z,40